createdAt,value
2022-08-24T00:02:03.671Z,14.93
2022-08-24T00:04:32.265Z,17.50
2022-08-24T00:07:01.306Z,18.33
2022-08-24T00:09:29.878Z,12.02
2022-08-24T00:11:57.069Z,11.52
2022-08-24T00:14:24.910Z,11.77
2022-08-24T00:16:52.242Z,11.63
2022-08-24T00:19:19.408Z,11.57
2022-08-24T00:21:46.968Z,12.98
2022-08-24T00:24:14.809Z,12.25
2022-08-24T00:26:42.061Z,14.98
2022-08-24T00:29:09.258Z,13.40
2022-08-24T00:31:36.523Z,14.15
2022-08-24T00:34:05.124Z,11.27
2022-08-24T00:36:32.218Z,15.38
2022-08-24T00:38:59.479Z,17.23
2022-08-24T00:41:27.298Z,15.57
2022-08-24T00:43:58.423Z,13.32
2022-08-24T00:46:38.367Z,15.13
2022-08-24T00:49:12.350Z,17.48
2022-08-24T00:51:51.871Z,12.70
2022-08-24T00:54:19.484Z,13.02
2022-08-24T00:56:51.567Z,12.15
2022-08-24T00:59:24.157Z,13.10
2022-08-24T01:01:54.050Z,12.95
2022-08-24T01:04:37.117Z,16.85
2022-08-24T01:07:04.809Z,12.80
2022-08-24T01:09:31.939Z,15.90
2022-08-24T01:11:59.903Z,15.10
2022-08-24T01:14:27.306Z,13.65
2022-08-24T01:17:12.746Z,14.10
2022-08-24T01:19:47.927Z,17.80
2022-08-24T01:22:39.355Z,14.05
2022-08-24T01:25:07.623Z,15.60
2022-08-24T01:27:37.589Z,12.98
2022-08-24T01:30:09.688Z,13.57
2022-08-24T01:32:39.480Z,12.68
2022-08-24T01:35:07.515Z,12.88
2022-08-24T01:37:35.814Z,12.23
2022-08-24T01:40:07.724Z,11.93
2022-08-24T01:42:36.205Z,13.60
2022-08-24T01:45:04.548Z,10.30
2022-08-24T01:47:31.814Z,12.32
2022-08-24T01:49:59.033Z,13.20
2022-08-24T01:52:35.084Z,10.80
2022-08-24T01:55:15.416Z,13.85
2022-08-24T01:57:47.709Z,12.85
2022-08-24T02:00:15.781Z,9.73
2022-08-24T02:02:45.066Z,9.77
2022-08-24T02:05:14.451Z,13.35
2022-08-24T02:07:44.447Z,14.07
2022-08-24T02:10:15.019Z,11.18
2022-08-24T02:12:45.860Z,12.80
2022-08-24T02:15:13.572Z,17.13
2022-08-24T02:17:40.979Z,10.40
2022-08-24T02:20:08.767Z,12.05
2022-08-24T02:22:36.625Z,12.55
2022-08-24T02:25:05.241Z,12.70
2022-08-24T02:27:32.287Z,18.50
2022-08-24T02:29:59.539Z,14.05
2022-08-24T02:32:26.693Z,15.40
2022-08-24T02:34:54.805Z,12.20
2022-08-24T02:37:22.392Z,13.63
2022-08-24T02:39:49.549Z,10.07
2022-08-24T02:42:19.324Z,12.63
2022-08-24T02:44:46.338Z,15.13
2022-08-24T02:47:17.812Z,13.18
2022-08-24T02:49:45.042Z,19.85
2022-08-24T02:52:13.015Z,11.43
2022-08-24T02:54:42.652Z,19.45
2022-08-24T02:57:09.740Z,15.38
2022-08-24T02:59:36.880Z,14.95
2022-08-24T03:02:04.666Z,16.42
2022-08-24T03:04:32.035Z,16.90
2022-08-24T03:07:00.661Z,21.23
2022-08-24T03:09:28.797Z,15.38
2022-08-24T03:11:57.545Z,16.23
2022-08-24T03:14:24.850Z,22.13
2022-08-24T03:16:51.917Z,19.90
2022-08-24T03:19:19.202Z,13.00
2022-08-24T03:21:46.498Z,11.35
2022-08-24T03:24:14.174Z,15.25
2022-08-24T03:26:44.210Z,15.80
2022-08-24T03:29:13.242Z,14.55
2022-08-24T03:31:40.530Z,18.20
2022-08-24T03:34:07.680Z,11.35
2022-08-24T03:36:34.736Z,17.35
2022-08-24T03:39:01.928Z,13.48
2022-08-24T03:41:29.024Z,18.80
2022-08-24T03:43:57.014Z,14.77
2022-08-24T03:46:29.013Z,15.25
2022-08-24T03:48:58.789Z,20.08
2022-08-24T03:51:28.088Z,12.00
2022-08-24T03:53:58.052Z,11.30
2022-08-24T03:56:28.366Z,15.13
2022-08-24T03:58:56.649Z,14.15
2022-08-24T04:01:26.000Z,12.15
2022-08-24T04:03:55.399Z,13.35
2022-08-24T04:06:27.669Z,16.23
2022-08-24T04:08:55.541Z,14.77
2022-08-24T04:11:25.707Z,15.18
2022-08-24T04:13:56.750Z,13.05
2022-08-24T04:16:26.028Z,11.30
2022-08-24T04:19:02.213Z,14.45
2022-08-24T04:21:35.417Z,9.77
2022-08-24T04:24:07.714Z,13.43
2022-08-24T04:26:45.760Z,20.80
2022-08-24T04:29:19.661Z,12.60
2022-08-24T04:31:51.785Z,11.50
2022-08-24T04:34:20.656Z,12.05
2022-08-24T04:36:47.885Z,11.07
2022-08-24T04:39:15.852Z,10.48
2022-08-24T04:42:03.111Z,9.15
2022-08-24T04:44:36.312Z,11.73
2022-08-24T04:47:04.455Z,11.52
2022-08-24T04:49:32.882Z,12.95
2022-08-24T04:52:01.110Z,11.85
2022-08-24T04:54:28.658Z,14.23
2022-08-24T04:57:09.412Z,19.75
2022-08-24T04:59:36.904Z,13.70
2022-08-24T05:02:04.084Z,12.93
2022-08-24T05:04:31.353Z,9.82
2022-08-24T05:06:58.959Z,14.23
2022-08-24T05:09:27.040Z,12.60
2022-08-24T05:11:55.728Z,11.70
2022-08-24T05:14:28.830Z,13.30
2022-08-24T05:16:56.891Z,9.73
2022-08-24T05:19:24.801Z,8.90
2022-08-24T05:21:52.515Z,10.70
2022-08-24T05:24:19.796Z,11.20
2022-08-24T05:26:47.365Z,8.93
2022-08-24T05:29:15.288Z,12.90
2022-08-24T05:31:48.106Z,13.50
2022-08-24T05:34:16.465Z,15.60
2022-08-24T05:36:44.365Z,10.50
2022-08-24T05:39:37.558Z,7.38
2022-08-24T05:42:08.093Z,11.93
2022-08-24T05:47:05.942Z,9.13
2022-08-24T05:49:33.024Z,9.60
2022-08-24T05:52:00.241Z,8.52
2022-08-24T05:54:27.449Z,16.40
2022-08-24T05:57:04.960Z,10.95
2022-08-24T05:59:45.948Z,9.98
2022-08-24T06:02:17.519Z,11.13
2022-08-24T06:04:47.357Z,10.15
2022-08-24T06:07:14.870Z,11.73
2022-08-24T06:09:47.496Z,11.93
2022-08-24T06:12:14.766Z,11.45
2022-08-24T06:14:47.625Z,9.32
2022-08-24T06:17:19.699Z,12.05
2022-08-24T06:19:47.414Z,10.20
2022-08-24T06:22:14.452Z,10.10
2022-08-24T06:25:00.289Z,10.93
2022-08-24T06:27:28.995Z,14.23
2022-08-24T06:30:05.835Z,9.95
2022-08-24T06:32:52.678Z,19.52
2022-08-24T06:35:52.678Z,12.35
2022-08-24T06:38:20.542Z,9.20
2022-08-24T06:40:48.920Z,6.95
2022-08-24T06:43:16.445Z,14.45
2022-08-24T06:46:07.607Z,8.82
2022-08-24T06:48:41.170Z,12.85
2022-08-24T06:51:11.361Z,10.57
2022-08-24T06:53:39.770Z,14.93
2022-08-24T06:56:08.470Z,9.02
2022-08-24T06:58:36.334Z,15.63
2022-08-24T07:01:22.578Z,17.70
2022-08-24T07:03:50.942Z,14.13
2022-08-24T07:06:38.101Z,13.88
2022-08-24T07:09:06.262Z,13.65
2022-08-24T07:11:35.230Z,9.48
2022-08-24T07:14:04.243Z,12.38
2022-08-24T07:16:31.793Z,20.45
2022-08-24T07:19:04.237Z,11.43
2022-08-24T07:21:35.366Z,12.82
2022-08-24T07:24:03.512Z,11.35
2022-08-24T07:26:35.371Z,11.05
2022-08-24T07:29:06.549Z,15.25
2022-08-24T07:31:44.173Z,14.90
2022-08-24T07:34:25.025Z,16.67
2022-08-24T07:36:53.195Z,14.05
2022-08-24T07:39:20.367Z,9.07
2022-08-24T07:44:38.841Z,16.48
2022-08-24T07:47:21.165Z,14.70
2022-08-24T07:49:53.821Z,13.93
2022-08-24T07:52:21.100Z,13.65
2022-08-24T07:54:48.487Z,14.18
2022-08-24T07:57:16.063Z,8.02
2022-08-24T07:59:43.258Z,9.45
2022-08-24T08:02:12.062Z,19.58
2022-08-24T08:04:40.774Z,9.05
2022-08-24T08:07:08.109Z,24.02
2022-08-24T08:09:38.055Z,11.45
2022-08-24T08:12:06.613Z,11.25
2022-08-24T08:14:34.287Z,8.07
2022-08-24T08:17:01.714Z,9.77
2022-08-24T08:19:28.917Z,8.60
2022-08-24T08:22:15.128Z,10.55
2022-08-24T08:25:02.279Z,9.13
2022-08-24T08:27:30.396Z,10.73
2022-08-24T08:29:57.776Z,11.70
2022-08-24T08:32:24.945Z,7.32
2022-08-24T08:34:52.260Z,11.30
2022-08-24T08:37:19.448Z,8.52
2022-08-24T08:39:47.866Z,10.85
2022-08-24T08:43:04.908Z,10.73
2022-08-24T08:45:38.034Z,10.60
2022-08-24T08:48:42.087Z,12.32
2022-08-24T08:51:51.466Z,10.65
2022-08-24T08:54:37.247Z,5.78
2022-08-24T08:57:07.101Z,9.07
2022-08-24T08:59:48.764Z,9.80
2022-08-24T09:02:47.195Z,9.27
2022-08-24T09:05:49.135Z,5.55
2022-08-24T09:08:51.859Z,8.73
2022-08-24T09:11:32.541Z,7.40
2022-08-24T09:14:09.241Z,7.10
2022-08-24T09:17:04.329Z,8.68
2022-08-24T09:19:40.741Z,9.65
2022-08-24T09:22:11.378Z,5.95
2022-08-24T09:24:51.502Z,9.40
2022-08-24T09:28:06.492Z,10.05
2022-08-24T09:31:04.868Z,6.90
2022-08-24T09:33:51.256Z,15.75
2022-08-24T09:36:40.042Z,6.72
2022-08-24T09:39:37.016Z,6.53
2022-08-24T09:42:16.221Z,7.70
2022-08-24T09:45:01.995Z,8.73
2022-08-24T09:47:40.187Z,13.68
2022-08-24T09:50:25.567Z,5.40
2022-08-24T09:53:31.828Z,4.25
2022-08-24T09:56:20.256Z,7.68
2022-08-24T09:59:02.531Z,9.65
2022-08-24T10:01:43.742Z,6.07
2022-08-24T10:04:36.506Z,5.32
2022-08-24T10:07:18.641Z,6.30
2022-08-24T10:10:19.466Z,5.78
2022-08-24T10:13:10.973Z,4.60
2022-08-24T10:15:51.263Z,5.03
2022-08-24T10:18:35.020Z,4.90
2022-08-24T10:21:18.781Z,12.93
2022-08-24T10:24:16.079Z,8.85
2022-08-24T10:26:58.528Z,4.72
2022-08-24T10:32:08.052Z,7.03
2022-08-24T10:35:05.790Z,7.60
2022-08-24T10:38:31.419Z,4.75
2022-08-24T10:41:31.168Z,5.70
2022-08-24T10:44:22.909Z,9.85
2022-08-24T10:46:59.953Z,9.23
2022-08-24T10:50:08.921Z,8.82
2022-08-24T10:52:36.772Z,8.07
2022-08-24T10:55:15.967Z,9.15
2022-08-24T10:58:12.586Z,10.55
2022-08-24T11:00:41.385Z,4.93
2022-08-24T11:03:15.285Z,10.65
2022-08-24T11:05:49.689Z,8.43
2022-08-24T11:08:27.048Z,6.45
2022-08-24T11:11:23.634Z,7.60
2022-08-24T11:13:59.272Z,7.28
2022-08-24T11:16:34.390Z,6.50
2022-08-24T11:19:05.638Z,12.75
2022-08-24T11:21:46.791Z,8.95
2022-08-24T11:24:28.325Z,9.15
2022-08-24T11:27:36.117Z,6.70
2022-08-24T11:30:10.252Z,8.85
2022-08-24T11:32:58.950Z,7.22
2022-08-24T11:35:32.638Z,7.55
2022-08-24T11:38:24.246Z,5.78
2022-08-24T11:40:57.299Z,8.23
2022-08-24T11:43:36.337Z,8.15
2022-08-24T11:46:35.265Z,6.95
2022-08-24T11:49:18.575Z,11.00
2022-08-24T11:51:57.003Z,11.35
2022-08-24T11:54:31.340Z,8.55
2022-08-24T11:57:47.538Z,7.60
2022-08-24T12:00:21.740Z,6.47
2022-08-24T12:02:55.685Z,4.50
2022-08-24T12:05:35.247Z,4.75
2022-08-24T12:08:26.355Z,7.53
2022-08-24T12:11:34.444Z,12.55
2022-08-24T12:14:26.117Z,10.85
2022-08-24T12:17:09.103Z,4.95
2022-08-24T12:19:49.484Z,6.55
2022-08-24T12:22:20.503Z,6.30
2022-08-24T12:24:51.251Z,6.20
2022-08-24T12:27:23.703Z,4.38
2022-08-24T12:30:19.039Z,10.65
2022-08-24T12:33:11.009Z,5.28
2022-08-24T12:35:55.199Z,6.07
2022-08-24T12:38:38.945Z,8.02
2022-08-24T12:41:19.326Z,7.82
2022-08-24T12:44:00.032Z,3.95
2022-08-24T12:46:27.642Z,6.25
2022-08-24T12:49:27.216Z,5.18
2022-08-24T12:52:33.415Z,5.25
2022-08-24T12:55:11.499Z,13.00
2022-08-24T12:57:54.192Z,8.45
2022-08-24T13:00:40.939Z,10.38
2022-08-24T13:03:23.892Z,6.80
2022-08-24T13:05:57.891Z,6.15
2022-08-24T13:08:40.468Z,9.70
2022-08-24T13:11:30.439Z,5.88
2022-08-24T13:13:57.602Z,2.80
2022-08-24T13:16:56.654Z,7.03
2022-08-24T13:19:27.604Z,5.93
2022-08-24T13:22:17.733Z,4.35
2022-08-24T13:24:48.591Z,4.25
2022-08-24T13:27:16.050Z,7.70
2022-08-24T13:30:04.401Z,3.40
2022-08-24T13:32:39.200Z,6.95
2022-08-24T13:35:40.174Z,7.55
2022-08-24T13:38:42.683Z,6.13
2022-08-24T13:41:26.983Z,9.77
2022-08-24T13:44:06.339Z,6.03
2022-08-24T13:46:56.176Z,3.13
2022-08-24T13:49:38.682Z,10.40
2022-08-24T13:52:56.442Z,4.05
2022-08-24T13:55:53.426Z,6.82
2022-08-24T13:58:51.539Z,7.22
2022-08-24T14:01:39.901Z,4.57
2022-08-24T14:04:10.206Z,2.42
2022-08-24T14:06:48.664Z,8.00
2022-08-24T14:09:37.270Z,2.45
2022-08-24T14:12:26.783Z,7.55
2022-08-24T14:15:02.942Z,9.52
2022-08-24T14:18:05.454Z,6.45
2022-08-24T14:21:18.106Z,5.83
2022-08-24T14:24:05.554Z,9.15
2022-08-24T14:26:38.922Z,9.40
2022-08-24T14:29:37.306Z,4.85
2022-08-24T14:32:11.951Z,6.30
2022-08-24T14:35:17.554Z,7.60
2022-08-24T14:38:24.994Z,7.13
2022-08-24T14:41:18.623Z,9.18
2022-08-24T14:44:10.642Z,6.78
2022-08-24T14:46:54.358Z,9.48
2022-08-24T14:49:54.289Z,7.43
2022-08-24T14:52:30.631Z,4.20
2022-08-24T14:55:20.377Z,12.90
2022-08-24T14:58:10.317Z,8.73
2022-08-24T15:01:02.959Z,8.70
2022-08-24T15:06:30.881Z,9.60
2022-08-24T15:09:18.296Z,4.30
2022-08-24T15:11:51.176Z,11.63
2022-08-24T15:14:40.832Z,9.20
2022-08-24T15:17:14.215Z,9.75
2022-08-24T15:22:36.608Z,8.23
2022-08-24T15:25:15.699Z,15.13
2022-08-24T15:27:53.943Z,9.80
2022-08-24T15:30:29.762Z,11.35
2022-08-24T15:33:19.646Z,7.30
2022-08-24T15:36:14.350Z,6.70
2022-08-24T15:38:42.821Z,15.85
2022-08-24T15:41:18.196Z,12.20
2022-08-24T15:44:09.697Z,20.98
2022-08-24T15:46:43.152Z,12.45
2022-08-24T15:49:18.697Z,23.98
2022-08-24T15:51:50.718Z,17.90
2022-08-24T15:54:38.085Z,14.90
2022-08-24T15:57:36.569Z,16.95
2022-08-24T16:00:40.432Z,82.10
2022-08-24T16:03:44.288Z,21.80
2022-08-24T16:06:33.128Z,13.70
2022-08-24T16:09:06.217Z,28.48
2022-08-24T16:11:47.973Z,12.80
2022-08-24T16:14:27.844Z,14.05
2022-08-24T16:16:56.361Z,14.82
2022-08-24T16:19:28.182Z,13.15
2022-08-24T16:22:26.404Z,10.38
2022-08-24T16:25:14.055Z,17.70
2022-08-24T16:28:09.941Z,26.13
2022-08-24T16:30:55.702Z,25.60
2022-08-24T16:33:34.654Z,35.97
2022-08-24T16:36:10.709Z,22.42
2022-08-24T16:38:44.881Z,25.90
2022-08-24T16:41:18.076Z,60.22
2022-08-24T16:43:46.380Z,42.28
2022-08-24T16:46:19.570Z,59.30
2022-08-24T16:48:46.968Z,46.78
2022-08-24T16:51:27.375Z,44.88
2022-08-24T16:53:54.729Z,35.70
2022-08-24T16:56:22.433Z,40.92
2022-08-24T16:58:51.043Z,34.03
2022-08-24T17:01:18.259Z,40.17
2022-08-24T17:03:47.759Z,45.97
2022-08-24T17:06:19.025Z,25.30
2022-08-24T17:08:47.762Z,23.30
2022-08-24T17:11:15.558Z,36.28
2022-08-24T17:13:50.815Z,23.25
2022-08-24T17:16:20.980Z,25.15
2022-08-24T17:18:49.079Z,24.45
2022-08-24T17:21:16.778Z,25.30
2022-08-24T17:23:44.337Z,21.48
2022-08-24T17:26:20.503Z,17.92
2022-08-24T17:28:52.698Z,20.10
2022-08-24T17:31:20.075Z,15.48
2022-08-24T17:33:47.441Z,22.60
2022-08-24T17:36:17.101Z,15.48
2022-08-24T17:38:54.466Z,7.35
2022-08-24T17:41:26.967Z,16.90
2022-08-24T17:43:55.158Z,16.48
2022-08-24T17:46:23.016Z,13.60
2022-08-24T17:48:51.016Z,11.35
2022-08-24T17:51:18.326Z,14.65
2022-08-24T17:53:45.799Z,20.63
2022-08-24T17:56:15.128Z,19.90
2022-08-24T17:59:02.147Z,19.05
2022-08-24T18:01:29.938Z,9.02
2022-08-24T18:03:57.201Z,19.90
2022-08-24T18:06:28.955Z,14.63
2022-08-24T18:08:59.664Z,14.73
2022-08-24T18:11:26.962Z,11.18
2022-08-24T18:13:54.837Z,11.20
2022-08-24T18:16:25.181Z,12.27
2022-08-24T18:18:54.482Z,12.73
2022-08-24T18:21:22.912Z,9.10
2022-08-24T18:23:51.074Z,36.90
2022-08-24T18:26:25.903Z,31.20
2022-08-24T18:29:00.387Z,27.95
2022-08-24T18:31:30.953Z,24.70
2022-08-24T18:33:58.243Z,15.00
2022-08-24T18:36:26.015Z,17.10
2022-08-24T18:38:53.542Z,15.57
2022-08-24T18:41:21.392Z,18.15
2022-08-24T18:43:48.967Z,22.02
2022-08-24T18:46:16.841Z,17.80
2022-08-24T18:48:44.093Z,19.48
2022-08-24T18:51:16.596Z,20.92
2022-08-24T18:53:43.724Z,14.95
2022-08-24T18:56:12.630Z,17.92
2022-08-24T18:58:40.536Z,27.77
2022-08-24T19:01:07.988Z,33.05
2022-08-24T19:03:35.428Z,32.35
2022-08-24T19:06:03.297Z,29.45
2022-08-24T19:08:30.673Z,30.63
2022-08-24T19:10:58.207Z,16.48
2022-08-24T19:13:25.328Z,32.50
2022-08-24T19:15:52.643Z,24.38
2022-08-24T19:18:22.151Z,19.85
2022-08-24T19:20:55.451Z,19.67
2022-08-24T19:23:28.522Z,20.13
2022-08-24T19:25:57.069Z,23.25
2022-08-24T19:28:26.573Z,18.25
2022-08-24T19:31:00.097Z,21.48
2022-08-24T19:33:32.227Z,19.25
2022-08-24T19:36:00.091Z,21.35
2022-08-24T19:38:27.407Z,14.57
2022-08-24T19:40:57.381Z,21.70
2022-08-24T19:43:26.998Z,20.40
2022-08-24T19:46:02.707Z,21.95
2022-08-24T19:48:35.715Z,25.98
2022-08-24T19:51:09.436Z,22.48
2022-08-24T19:53:37.946Z,21.33
2022-08-24T19:56:08.313Z,22.77
2022-08-24T19:58:53.847Z,15.40
2022-08-24T20:01:27.492Z,21.42
2022-08-24T20:03:55.659Z,17.88
2022-08-24T20:06:25.184Z,13.65
2022-08-24T20:08:53.377Z,17.45
2022-08-24T20:11:25.146Z,11.77
2022-08-24T20:13:53.875Z,13.95
2022-08-24T20:16:22.770Z,23.40
2022-08-24T20:18:50.419Z,20.63
2022-08-24T20:21:18.450Z,15.68
2022-08-24T20:23:46.203Z,19.45
2022-08-24T20:26:14.657Z,21.65
2022-08-24T20:28:48.688Z,16.38
2022-08-24T20:31:17.044Z,15.60
2022-08-24T20:33:44.302Z,23.30
2022-08-24T20:36:44.799Z,16.15
2022-08-24T20:39:13.473Z,14.90
2022-08-24T20:41:40.943Z,15.50
2022-08-24T20:44:09.550Z,12.25
2022-08-24T20:46:38.317Z,13.20
2022-08-24T20:49:07.798Z,23.08
2022-08-24T20:51:39.424Z,13.18
2022-08-24T20:54:07.911Z,19.10
2022-08-24T20:56:38.110Z,15.63
2022-08-24T20:59:09.894Z,17.45
2022-08-24T21:01:38.339Z,10.43
2022-08-24T21:04:05.787Z,11.70
2022-08-24T21:06:34.306Z,17.92
2022-08-24T21:09:02.957Z,16.58
2022-08-24T21:11:33.030Z,10.73
2022-08-24T21:14:00.895Z,15.95
2022-08-24T21:16:28.382Z,17.23
2022-08-24T21:18:55.451Z,11.05
2022-08-24T21:21:22.622Z,11.00
2022-08-24T21:23:49.689Z,11.35
2022-08-24T21:26:23.245Z,13.50
2022-08-24T21:28:52.283Z,15.23
2022-08-24T21:31:19.444Z,8.75
2022-08-24T21:34:04.926Z,17.63
2022-08-24T21:36:32.792Z,14.25
2022-08-24T21:39:00.492Z,15.48
2022-08-24T21:41:30.988Z,13.13
2022-08-24T21:43:58.360Z,13.40
2022-08-24T21:46:31.280Z,11.80
2022-08-24T21:48:59.111Z,12.82
2022-08-24T21:51:26.760Z,13.40
2022-08-24T21:53:56.648Z,13.63
2022-08-24T21:56:30.873Z,13.82
2022-08-24T21:58:58.619Z,16.20
2022-08-24T22:01:26.076Z,13.25
2022-08-24T22:03:53.331Z,21.45
2022-08-24T22:06:21.540Z,17.40
2022-08-24T22:08:48.763Z,14.57
2022-08-24T22:11:19.226Z,14.95
2022-08-24T22:13:46.810Z,13.80
2022-08-24T22:16:17.647Z,13.95
2022-08-24T22:18:45.258Z,11.15
2022-08-24T22:21:17.674Z,19.27
2022-08-24T22:23:45.424Z,13.20
2022-08-24T22:26:12.980Z,12.60
2022-08-24T22:28:42.261Z,11.13
2022-08-24T22:31:22.638Z,9.65
2022-08-24T22:33:50.217Z,10.52
2022-08-24T22:36:18.234Z,12.05
2022-08-24T22:38:45.753Z,15.68
2022-08-24T22:41:13.365Z,14.52
2022-08-24T22:43:59.384Z,19.52
2022-08-24T22:46:28.108Z,11.98
2022-08-24T22:48:55.529Z,15.52
2022-08-24T22:51:23.159Z,14.75
2022-08-24T22:53:50.342Z,15.50
2022-08-24T22:56:30.181Z,11.40
2022-08-24T22:58:57.498Z,15.43
2022-08-24T23:01:33.182Z,14.63
2022-08-24T23:04:23.552Z,8.55
2022-08-24T23:06:51.668Z,17.50
2022-08-24T23:09:22.154Z,18.40
2022-08-24T23:11:49.514Z,12.30
2022-08-24T23:14:16.621Z,10.85
2022-08-24T23:16:47.963Z,12.23
2022-08-24T23:19:35.653Z,12.50
2022-08-24T23:22:04.318Z,13.57
2022-08-24T23:24:31.635Z,11.55
2022-08-24T23:26:59.412Z,11.65
2022-08-24T23:29:26.630Z,15.43
2022-08-24T23:31:54.059Z,11.93
2022-08-24T23:34:22.336Z,13.90
2022-08-24T23:36:50.591Z,13.23
2022-08-24T23:39:18.541Z,9.48
2022-08-24T23:41:47.002Z,15.93
2022-08-24T23:44:24.057Z,9.90
2022-08-24T23:46:51.313Z,13.30
2022-08-24T23:49:21.304Z,15.73
2022-08-24T23:51:49.784Z,19.40
2022-08-24T23:54:20.187Z,17.75
2022-08-24T23:56:48.373Z,17.65
2022-08-24T23:59:20.466Z,14.90
